Time;durP1;ratioP1;P1;durP2;ratioP2;P2;SDS_P1;SDS_P2;PMS_P1;PMS_P2;Temp;Humidity;BMP_temperature;BMP_pressure;BME280_temperature;BME280_humidity;BME280_pressure;Samples;Min_cycle;Max_cycle;Signal;HPM_P1;HPM_P2
2022/10/11 00:00:36;;;;;;;;;;;;;;;21.48;60.91;101656.81;7402541;19;1476;-41
2022/10/11 00:03:10;;;;;;;;;;;;;;;21.48;60.67;101654.13;7401058;19;1843;-41
2022/10/11 00:05:39;;;;;;;;;;;;;;;21.53;60.70;101662.69;7400911;19;1458;-41
2022/10/11 00:08:08;;;;;;;;;;;;;;;21.48;60.74;101651.44;7403162;19;1637;-40
2022/10/11 00:10:38;;;;;;;;;;;;;;;21.50;60.78;101644.09;7402931;19;1925;-41
2022/10/11 00:13:09;;;;;;;;;;;;;;;21.47;60.71;101653.28;7403052;19;1713;-40
2022/10/11 00:15:40;;;;;;;;;;;;;;;21.48;60.80;101648.75;7403191;19;1830;-40
2022/10/11 00:18:13;;;;;;;;;;;;;;;21.48;60.77;101638.00;7402356;19;1936;-40
2022/10/11 00:21:01;;;;;;;;;;;;;;;21.44;60.75;101635.53;7402377;19;1476;-41
2022/10/11 00:23:30;;;;;;;;;;;;;;;21.42;60.85;101631.25;7400481;19;1850;-41
2022/10/11 00:26:06;;;;;;;;;;;;;;;21.43;60.76;101636.53;7402178;19;1897;-40
2022/10/11 00:28:35;;;;;;;;;;;;;;;21.45;60.47;101631.03;7401995;19;1779;-41
2022/10/11 00:31:04;;;;;;;;;;;;;;;21.43;60.53;101639.22;7401665;19;1704;-41
2022/10/11 00:33:39;;;;;;;;;;;;;;;21.40;60.64;101628.69;7402985;19;1093;-40
2022/10/11 00:36:13;;;;;;;;;;;;;;;21.39;60.91;101626.16;7401518;19;1849;-40
2022/10/11 00:38:45;;;;;;;;;;;;;;;21.43;60.58;101628.47;7400454;19;1472;-42
2022/10/11 00:41:18;;;;;;;;;;;;;;;21.44;60.62;101630.16;7401417;19;1479;-41
2022/10/11 00:43:48;;;;;;;;;;;;;;;21.42;60.53;101624.03;7402502;19;2031;-41
2022/10/11 00:46:31;;;;;;;;;;;;;;;21.44;60.42;101619.41;7401645;19;1809;-40
2022/10/11 00:49:07;;;;;;;;;;;;;;;21.41;60.57;101614.25;7401811;19;1814;-41
2022/10/11 00:51:45;;;;;;;;;;;;;;;21.44;60.60;101619.41;7401599;19;1762;-40
2022/10/11 00:54:19;;;;;;;;;;;;;;;21.42;60.74;101609.72;7400547;19;1590;-41
2022/10/11 00:56:54;;;;;;;;;;;;;;;21.38;60.66;101601.06;7400655;19;1956;-41
2022/10/11 00:59:32;;;;;;;;;;;;;;;21.41;60.51;101610.72;7402152;19;1758;-41
2022/10/11 01:02:00;;;;;;;;;;;;;;;21.39;60.49;101610.84;7400015;19;1900;-41
2022/10/11 01:04:34;;;;;;;;;;;;;;;21.39;60.69;101616.22;7402669;19;967;-40
2022/10/11 01:07:05;;;;;;;;;;;;;;;21.37;60.58;101609.28;7401298;19;2035;-40
2022/10/11 01:09:38;;;;;;;;;;;;;;;21.36;60.46;101604.88;7400644;19;1648;-41
2022/10/11 01:12:08;;;;;;;;;;;;;;;21.34;60.68;101607.69;7400827;19;1769;-41
2022/10/11 01:14:54;;;;;;;;;;;;;;;21.37;60.42;101612.81;7401655;19;1911;-40
2022/10/11 01:17:26;;;;;;;;;;;;;;;21.35;60.39;101604.03;7401113;19;1920;-41
2022/10/11 01:20:16;;;;;;;;;;;;;;;21.32;60.54;101589.97;7400038;19;1831;-40
2022/10/11 01:23:06;;;;;;;;;;;;;;;21.32;60.83;101585.44;7399406;19;1853;-41
2022/10/11 01:25:39;;;;;;;;;;;;;;;21.33;60.37;101589.84;7404066;19;1837;-41
2022/10/11 01:28:20;;;;;;;;;;;;;;;21.34;60.53;101588.00;7408744;19;1894;-40
2022/10/11 01:30:59;;;;;;;;;;;;;;;21.31;60.65;101591.81;7408626;19;1782;-40
2022/10/11 01:33:41;;;;;;;;;;;;;;;21.36;60.54;101575.28;7408859;19;1910;-40
2022/10/11 01:36:31;;;;;;;;;;;;;;;21.30;60.31;101587.41;7408021;19;1913;-41
2022/10/11 01:39:03;;;;;;;;;;;;;;;21.35;60.24;101598.66;7408670;19;1442;-40
2022/10/11 01:41:36;;;;;;;;;;;;;;;21.31;60.75;101583.75;7407675;19;1975;-40
2022/10/11 01:44:07;;;;;;;;;;;;;;;21.31;60.41;101583.75;7405113;19;2066;-41
2022/10/11 01:46:42;;;;;;;;;;;;;;;21.34;60.29;101591.53;7408045;19;1297;-41
2022/10/11 01:49:13;;;;;;;;;;;;;;;21.31;60.48;101578.38;7408004;19;1897;-40
2022/10/11 01:51:47;;;;;;;;;;;;;;;21.29;60.59;101577.66;7407760;19;1962;-41
2022/10/11 01:54:26;;;;;;;;;;;;;;;21.32;60.40;101580.06;7406512;19;1810;-40
2022/10/11 01:57:09;;;;;;;;;;;;;;;21.30;60.46;101579.34;7407032;19;1957;-41
2022/10/11 01:59:43;;;;;;;;;;;;;;;21.33;60.26;101579.09;7405717;19;1927;-41
2022/10/11 02:02:19;;;;;;;;;;;;;;;21.30;60.54;101573.13;7395008;19;3272;-63
2022/10/11 02:04:51;;;;;;;;;;;;;;;21.32;60.52;101581.91;7409756;19;1356;-64
2022/10/11 02:07:24;;;;;;;;;;;;;;;21.27;60.47;101579.63;7408144;19;1610;-64
2022/10/11 02:09:58;;;;;;;;;;;;;;;21.30;60.39;101576.66;7409271;19;1425;-64
2022/10/11 02:12:29;;;;;;;;;;;;;;;21.30;60.02;101565.03;7408922;19;1741;-65
2022/10/11 02:14:59;;;;;;;;;;;;;;;21.44;60.33;101580.88;7408857;19;1817;-64
2022/10/11 02:17:32;;;;;;;;;;;;;;;21.49;60.14;101577.78;7408368;19;1457;-64
2022/10/11 02:20:02;;;;;;;;;;;;;;;21.38;61.14;101574.16;7409244;19;1679;-64
2022/10/11 02:22:33;;;;;;;;;;;;;;;21.32;61.36;101568.44;7407525;19;1844;-64
2022/10/11 02:25:04;;;;;;;;;;;;;;;21.35;60.75;101576.28;7408901;19;1406;-64
2022/10/11 02:27:35;;;;;;;;;;;;;;;21.40;60.73;101571.34;7408240;19;1524;-64
2022/10/11 02:30:06;;;;;;;;;;;;;;;21.39;60.64;101559.72;7409166;19;1630;-62
2022/10/11 02:32:38;;;;;;;;;;;;;;;21.45;60.69;101569.16;7408238;19;1299;-64
2022/10/11 02:35:07;;;;;;;;;;;;;;;21.37;62.01;101552.78;7408898;19;1630;-64
2022/10/11 02:37:38;;;;;;;;;;;;;;;21.37;61.78;101566.22;7408308;19;1711;-64
2022/10/11 02:40:08;;;;;;;;;;;;;;;21.38;61.83;101576.00;7408731;19;1532;-64
2022/10/11 02:42:38;;;;;;;;;;;;;;;21.37;62.00;101574.31;7408419;19;1841;-64
2022/10/11 02:45:10;;;;;;;;;;;;;;;21.34;61.83;101567.31;7407851;19;1528;-64
2022/10/11 02:47:43;;;;;;;;;;;;;;;21.33;62.15;101567.44;7408470;19;1350;-64
2022/10/11 02:50:12;;;;;;;;;;;;;;;21.31;61.69;101553.28;7408334;19;1340;-64
2022/10/11 02:52:40;;;;;;;;;;;;;;;21.28;61.97;101551.72;7408624;19;1283;-64
2022/10/11 02:55:09;;;;;;;;;;;;;;;21.31;61.53;101570.31;7407659;19;1523;-64
2022/10/11 02:57:38;;;;;;;;;;;;;;;21.28;61.72;101559.78;7408259;19;1618;-64
2022/10/11 03:00:07;;;;;;;;;;;;;;;21.31;61.54;101551.47;7406675;19;1687;-64
2022/10/11 03:02:36;;;;;;;;;;;;;;;21.29;61.75;101555.25;7405168;19;1861;-64
2022/10/11 03:05:07;;;;;;;;;;;;;;;21.29;61.21;101550.75;7407438;19;1540;-64
2022/10/11 03:07:36;;;;;;;;;;;;;;;21.28;61.36;101549.03;7406548;19;1328;-63
2022/10/11 03:10:05;;;;;;;;;;;;;;;21.32;61.28;101560.38;7408537;19;1501;-63
2022/10/11 03:12:33;;;;;;;;;;;;;;;21.27;61.35;101552.72;7407693;19;1543;-64
2022/10/11 03:15:02;;;;;;;;;;;;;;;21.28;61.37;101546.34;7407972;19;1394;-64
2022/10/11 03:17:30;;;;;;;;;;;;;;;21.28;61.28;101537.41;7406678;19;1627;-64
2022/10/11 03:19:59;;;;;;;;;;;;;;;21.26;61.32;101542.94;7406257;19;1433;-64
2022/10/11 03:22:30;;;;;;;;;;;;;;;21.24;61.46;101531.44;7405981;19;1857;-65
2022/10/11 03:24:59;;;;;;;;;;;;;;;21.23;61.38;101541.38;7405578;19;1508;-65
2022/10/11 03:27:27;;;;;;;;;;;;;;;21.25;61.29;101538.53;7407149;19;1537;-65
2022/10/11 03:29:56;;;;;;;;;;;;;;;21.25;61.13;101543.94;7407522;19;1517;-65
2022/10/11 03:32:25;;;;;;;;;;;;;;;21.24;61.41;101543.06;7406213;19;1317;-65
2022/10/11 03:34:53;;;;;;;;;;;;;;;21.22;61.12;101533.41;7406580;19;1615;-65
2022/10/11 03:37:22;;;;;;;;;;;;;;;21.28;61.30;101550.88;7405829;19;1671;-65
2022/10/11 03:39:53;;;;;;;;;;;;;;;21.25;61.31;101541.25;7405552;19;1549;-65
2022/10/11 03:42:21;;;;;;;;;;;;;;;21.26;61.21;101535.69;7405864;19;1854;-65
2022/10/11 03:44:50;;;;;;;;;;;;;;;21.28;60.83;101529.34;7405990;19;1860;-64
2022/10/11 03:47:19;;;;;;;;;;;;;;;21.26;61.13;101530.31;7404891;19;1537;-64
2022/10/11 03:49:48;;;;;;;;;;;;;;;21.27;61.07;101541.97;7405051;19;1616;-64
2022/10/11 03:52:16;;;;;;;;;;;;;;;21.25;61.17;101533.16;7403710;19;1595;-63
2022/10/11 03:54:45;;;;;;;;;;;;;;;21.25;61.23;101543.94;7404802;19;1525;-64
2022/10/11 03:57:16;;;;;;;;;;;;;;;21.24;61.11;101526.06;7406197;19;1663;-64
2022/10/11 03:59:45;;;;;;;;;;;;;;;21.23;61.17;101527.06;7405635;19;1501;-64
2022/10/11 04:02:13;;;;;;;;;;;;;;;21.21;61.22;101519.13;7403494;19;1666;-64
2022/10/11 04:04:42;;;;;;;;;;;;;;;21.23;61.04;101540.50;7405318;19;1841;-64
2022/10/11 04:07:10;;;;;;;;;;;;;;;21.18;60.98;101527.44;7406113;19;1341;-64
2022/10/11 04:09:39;;;;;;;;;;;;;;;21.20;61.23;101514.72;7404999;19;1523;-63
2022/10/11 04:12:08;;;;;;;;;;;;;;;21.26;60.76;101533.00;7404914;19;1773;-64
2022/10/11 04:14:39;;;;;;;;;;;;;;;21.26;61.08;101548.31;7405859;19;1418;-63
2022/10/11 04:17:07;;;;;;;;;;;;;;;21.23;61.10;101529.75;7404470;19;1769;-63
2022/10/11 04:19:36;;;;;;;;;;;;;;;21.24;61.01;101539.50;7405360;19;1528;-63
2022/10/11 04:22:04;;;;;;;;;;;;;;;21.24;61.03;101516.16;7404485;19;1235;-63
2022/10/11 04:24:33;;;;;;;;;;;;;;;21.22;60.77;101534.25;7403219;19;1856;-64
2022/10/11 04:27:01;;;;;;;;;;;;;;;21.21;61.01;101534.41;7404640;19;1239;-64
2022/10/11 04:29:30;;;;;;;;;;;;;;;21.23;61.01;101519.00;7403747;19;1449;-64
2022/10/11 04:32:01;;;;;;;;;;;;;;;21.20;61.00;101521.94;7403946;19;1280;-64
2022/10/11 04:34:30;;;;;;;;;;;;;;;21.20;61.01;101519.25;7405540;19;1544;-64
2022/10/11 04:36:58;;;;;;;;;;;;;;;21.21;60.80;101531.72;7403880;19;1409;-65
2022/10/11 04:39:27;;;;;;;;;;;;;;;21.21;60.97;101532.56;7404477;19;1528;-64
2022/10/11 04:41:55;;;;;;;;;;;;;;;21.18;60.96;101522.06;7403173;19;1300;-64
2022/10/11 04:44:24;;;;;;;;;;;;;;;21.19;60.82;101528.31;7402332;19;1857;-64
2022/10/11 04:46:52;;;;;;;;;;;;;;;21.20;60.93;101532.69;7402859;19;1532;-64
2022/10/11 04:49:23;;;;;;;;;;;;;;;21.20;61.08;101535.38;7404860;19;1532;-64
2022/10/11 04:51:52;;;;;;;;;;;;;;;21.17;60.99;101524.88;7404084;19;1347;-64
2022/10/11 04:54:20;;;;;;;;;;;;;;;21.18;60.90;101540.88;7403954;19;1683;-64
2022/10/11 04:56:49;;;;;;;;;;;;;;;21.19;60.97;101544.44;7402237;19;1485;-64
2022/10/11 04:59:17;;;;;;;;;;;;;;;21.19;61.05;101544.44;7403775;19;1536;-64
2022/10/11 05:01:46;;;;;;;;;;;;;;;21.24;60.72;101544.91;7406144;19;1606;-64
2022/10/11 05:04:15;;;;;;;;;;;;;;;21.21;60.74;101542.50;7410197;19;1856;-71
2022/10/11 05:06:46;;;;;;;;;;;;;;;21.28;60.66;101532.88;7410597;19;1734;-64
2022/10/11 05:09:14;;;;;;;;;;;;;;;21.38;60.54;101541.03;7410836;19;1425;-68
2022/10/11 05:11:43;;;;;;;;;;;;;;;21.31;60.78;101534.44;7410169;19;1187;-68
2022/10/11 05:14:11;;;;;;;;;;;;;;;21.35;60.92;101542.16;7411403;19;1365;-66
2022/10/11 05:16:40;;;;;;;;;;;;;;;21.29;60.20;101555.25;7407385;19;1766;-65
2022/10/11 05:19:09;;;;;;;;;;;;;;;21.29;60.20;101533.72;7410831;19;1622;-70
2022/10/11 05:21:37;;;;;;;;;;;;;;;21.36;60.60;101543.00;7409361;19;1234;-65
2022/10/11 05:24:08;;;;;;;;;;;;;;;21.47;60.44;101534.00;7408680;19;1865;-63
2022/10/11 05:26:37;;;;;;;;;;;;;;;21.47;60.40;101534.88;7407749;19;1476;-70
2022/10/11 05:29:05;;;;;;;;;;;;;;;21.40;60.80;101542.59;7407113;19;1204;-71
2022/10/11 05:31:34;;;;;;;;;;;;;;;21.36;60.96;101535.75;7407493;19;1333;-70
2022/10/11 05:34:02;;;;;;;;;;;;;;;21.38;60.85;101558.00;7410128;19;1359;-65
2022/10/11 05:36:30;;;;;;;;;;;;;;;21.36;61.17;101540.31;7409893;19;1357;-69
2022/10/11 05:38:59;;;;;;;;;;;;;;;21.36;61.17;101561.81;7409274;19;1484;-64
2022/10/11 05:41:30;;;;;;;;;;;;;;;21.44;60.71;101540.53;7408782;19;1488;-66
2022/10/11 05:43:59;;;;;;;;;;;;;;;21.46;59.61;101543.94;7406999;19;1847;-64
2022/10/11 05:46:27;;;;;;;;;;;;;;;21.47;60.52;101542.97;7408192;19;1485;-67
2022/10/11 05:48:56;;;;;;;;;;;;;;;21.48;60.90;101549.19;7406561;19;1765;-66
2022/10/11 05:51:24;;;;;;;;;;;;;;;21.45;60.75;101545.78;7409662;19;1598;-65
2022/10/11 05:53:52;;;;;;;;;;;;;;;21.47;60.03;101550.16;7409400;19;1152;-65
2022/10/11 05:56:22;;;;;;;;;;;;;;;21.48;61.13;101549.19;7408047;19;1411;-64
2022/10/11 05:58:52;;;;;;;;;;;;;;;21.43;61.23;101541.53;7408233;19;1570;-64
2022/10/11 06:01:22;;;;;;;;;;;;;;;21.48;61.48;101546.50;7407929;19;1451;-64
2022/10/11 06:03:50;;;;;;;;;;;;;;;21.46;61.61;101546.63;7407773;19;1861;-65
2022/10/11 06:06:19;;;;;;;;;;;;;;;21.45;61.84;101556.53;7409665;19;1310;-64
2022/10/11 06:08:47;;;;;;;;;;;;;;;21.44;61.56;101557.50;7409982;19;1311;-64
2022/10/11 06:11:17;;;;;;;;;;;;;;;21.45;61.63;101540.41;7408624;19;1622;-64
2022/10/11 06:13:45;;;;;;;;;;;;;;;21.43;61.74;101541.53;7405813;19;1666;-65
2022/10/11 06:16:16;;;;;;;;;;;;;;;21.44;61.39;101549.44;7408351;19;1500;-63
2022/10/11 06:18:45;;;;;;;;;;;;;;;21.48;60.57;101543.81;7407205;19;1341;-64
2022/10/11 06:21:14;;;;;;;;;;;;;;;21.44;60.69;101546.75;7409002;19;1405;-64
2022/10/11 06:23:42;;;;;;;;;;;;;;;21.48;61.34;101557.25;7407401;19;1849;-67
2022/10/11 06:26:11;;;;;;;;;;;;;;;21.50;60.69;101563.38;7405535;19;1536;-62
2022/10/11 06:28:40;;;;;;;;;;;;;;;21.54;60.50;101537.88;7409259;19;1225;-62
2022/10/11 06:31:08;;;;;;;;;;;;;;;21.58;61.35;101539.31;7407382;19;1607;-64
2022/10/11 06:33:39;;;;;;;;;;;;;;;21.62;60.17;101546.13;7408716;19;1539;-70
2022/10/11 06:36:10;;;;;;;;;;;;;;;21.68;61.16;101545.59;7409979;19;1521;-68
2022/10/11 06:38:38;;;;;;;;;;;;;;;21.71;61.17;101550.72;7409282;19;1576;-67
2022/10/11 06:41:13;;;;;;;;;;;;;;;21.65;61.25;101543.19;7406670;19;1609;-67
2022/10/11 06:43:41;;;;;;;;;;;;;;;21.72;61.56;101552.41;7409018;19;1853;-67
2022/10/11 06:46:10;;;;;;;;;;;;;;;21.77;61.08;101560.97;7406747;19;1628;-67
2022/10/11 06:48:44;;;;;;;;;;;;;;;21.75;59.93;101567.47;7407508;19;1532;-62
2022/10/11 06:51:13;;;;;;;;;;;;;;;21.82;59.46;101564.09;7407074;19;1383;-62
2022/10/11 06:53:42;;;;;;;;;;;;;;;21.67;59.93;101554.69;7406477;19;1469;-60
2022/10/11 06:56:11;;;;;;;;;;;;;;;21.60;60.50;101575.03;7406831;19;1475;-61
2022/10/11 06:58:40;;;;;;;;;;;;;;;21.54;59.78;101584.47;7406455;19;1311;-60
2022/10/11 07:01:12;;;;;;;;;;;;;;;21.52;59.31;101580.22;7405254;19;1473;-60
2022/10/11 07:03:42;;;;;;;;;;;;;;;21.40;59.10;101574.88;7405950;19;1859;-60
2022/10/11 07:06:14;;;;;;;;;;;;;;;21.43;58.68;101587.25;7406025;19;1725;-60
2022/10/11 07:08:42;;;;;;;;;;;;;;;21.45;58.94;101580.75;7402248;19;1485;-61
2022/10/11 07:11:11;;;;;;;;;;;;;;;21.48;60.32;101559.94;7402477;19;1533;-61
2022/10/11 07:13:40;;;;;;;;;;;;;;;21.50;61.20;101580.34;7401511;19;1795;-61
2022/10/11 07:16:10;;;;;;;;;;;;;;;21.49;60.86;101572.41;7403366;19;1606;-61
2022/10/11 07:18:38;;;;;;;;;;;;;;;21.52;60.80;101572.16;7402545;19;1608;-61
2022/10/11 07:21:12;;;;;;;;;;;;;;;21.49;60.94;101553.56;7403452;19;1619;-60
2022/10/11 07:23:40;;;;;;;;;;;;;;;21.52;60.85;101558.69;7402646;19;1855;-61
2022/10/11 07:26:09;;;;;;;;;;;;;;;21.54;60.80;101564.78;7407309;19;1627;-61
2022/10/11 07:28:38;;;;;;;;;;;;;;;21.57;60.83;101564.53;7407704;19;1625;-61
2022/10/11 07:31:07;;;;;;;;;;;;;;;21.57;61.00;101556.47;7406905;19;1607;-60
2022/10/11 07:33:36;;;;;;;;;;;;;;;21.59;60.36;101551.81;7405125;19;1624;-60
2022/10/11 07:36:04;;;;;;;;;;;;;;;21.72;60.46;101556.97;7405986;19;1393;-61
2022/10/11 07:38:36;;;;;;;;;;;;;;;21.55;56.29;101547.69;7405286;19;1633;-60
2022/10/11 07:41:06;;;;;;;;;;;;;;;21.48;56.64;101568.03;7406688;19;1397;-60
2022/10/11 07:43:35;;;;;;;;;;;;;;;21.44;57.69;101579.03;7341061;19;12506;-60
2022/10/11 07:46:03;;;;;;;;;;;;;;;21.48;58.67;101584.16;7402410;19;1846;-60
2022/10/11 07:48:32;;;;;;;;;;;;;;;21.49;58.86;101570.59;7405234;19;1313;-60
2022/10/11 07:51:05;;;;;;;;;;;;;;;21.47;59.26;101571.69;7405440;19;1537;-60
2022/10/11 07:53:39;;;;;;;;;;;;;;;21.51;59.39;101575.84;7404937;19;1542;-60
2022/10/11 07:56:08;;;;;;;;;;;;;;;21.55;58.97;101580.81;7405016;19;1604;-60
2022/10/11 07:58:36;;;;;;;;;;;;;;;21.53;59.22;101569.34;7404435;19;1525;-60
2022/10/11 08:01:05;;;;;;;;;;;;;;;21.57;59.20;101575.31;7404982;19;1683;-60
2022/10/11 08:03:34;;;;;;;;;;;;;;;21.59;59.30;101568.81;7405141;19;1550;-60
2022/10/11 08:06:03;;;;;;;;;;;;;;;21.58;59.26;101568.94;7402123;19;1847;-60
2022/10/11 08:08:31;;;;;;;;;;;;;;;21.61;59.41;101571.38;7404696;19;1528;-60
2022/10/11 08:11:02;;;;;;;;;;;;;;;21.58;59.46;101553.63;7405348;19;1505;-61
2022/10/11 08:13:49;;;;;;;;;;;;;;;21.74;58.82;101576.53;7400067;19;1720;-63
2022/10/11 08:16:17;;;;;;;;;;;;;;;21.73;59.12;101566.75;7400405;19;1652;-61
2022/10/11 08:18:46;;;;;;;;;;;;;;;21.74;59.18;101561.22;7404531;19;1346;-62
2022/10/11 08:21:15;;;;;;;;;;;;;;;21.73;59.21;101556.00;7404561;19;1319;-61
2022/10/11 08:23:44;;;;;;;;;;;;;;;21.78;59.15;101551.88;7404060;19;1316;-61
2022/10/11 08:26:15;;;;;;;;;;;;;;;21.74;59.31;101561.22;7403798;19;1861;-61
2022/10/11 08:28:44;;;;;;;;;;;;;;;21.70;59.51;101551.69;7404056;19;1750;-61
2022/10/11 08:31:13;;;;;;;;;;;;;;;21.69;59.78;101546.47;7402554;19;1550;-61
2022/10/11 08:33:42;;;;;;;;;;;;;;;21.65;59.82;101530.59;7405046;19;1536;-61
2022/10/11 08:36:11;;;;;;;;;;;;;;;21.69;59.71;101541.94;7405132;19;1624;-61
2022/10/11 08:38:40;;;;;;;;;;;;;;;21.64;59.66;101536.94;7405277;19;1557;-62
2022/10/11 08:41:22;;;;;;;;;;;;;;;21.63;60.10;101545.16;7405296;19;1604;-62
2022/10/11 08:43:57;;;;;;;;;;;;;;;21.63;60.04;101537.94;7405130;19;1762;-61
2022/10/11 08:46:27;;;;;;;;;;;;;;;21.62;60.16;101544.28;7402056;19;1849;-61
2022/10/11 08:48:56;;;;;;;;;;;;;;;21.59;60.01;101535.66;7403841;19;1800;-61
2022/10/11 08:51:27;;;;;;;;;;;;;;;21.55;59.97;101532.38;7404846;19;1628;-62
2022/10/11 08:53:58;;;;;;;;;;;;;;;21.51;58.54;101536.31;7402802;19;1359;-61
2022/10/11 08:56:32;;;;;;;;;;;;;;;21.56;57.22;101546.69;7403823;19;1437;-62
2022/10/11 08:59:03;;;;;;;;;;;;;;;21.49;58.46;101551.75;7404152;19;1608;-61
2022/10/11 09:01:32;;;;;;;;;;;;;;;21.52;56.27;101556.00;7402378;19;1414;-61
2022/10/11 09:04:02;;;;;;;;;;;;;;;21.48;57.32;101535.72;7403282;19;1491;-61
2022/10/11 09:06:37;;;;;;;;;;;;;;;21.50;55.71;101548.06;7400925;19;1841;-62
2022/10/11 09:09:12;;;;;;;;;;;;;;;21.45;55.83;101540.41;7403439;19;1296;-62
2022/10/11 09:11:52;;;;;;;;;;;;;;;21.45;56.61;101548.47;7402379;19;1378;-61
2022/10/11 09:14:30;;;;;;;;;;;;;;;21.39;56.55;101551.66;7402624;19;1326;-62
2022/10/11 09:17:03;;;;;;;;;;;;;;;20.91;56.01;101546.78;7402466;19;1255;-61
2022/10/11 09:19:48;;;;;;;;;;;;;;;20.93;56.22;101550.19;7402107;19;1275;-61
2022/10/11 09:22:20;;;;;;;;;;;;;;;21.21;56.28;101553.25;7401831;19;1465;-65
2022/10/11 09:24:57;;;;;;;;;;;;;;;21.40;55.71;101555.19;7396014;19;1836;-65
2022/10/11 09:27:31;;;;;;;;;;;;;;;21.33;56.15;101554.00;7403494;19;1325;-73
2022/10/11 09:30:01;;;;;;;;;;;;;;;21.31;55.30;101548.78;7397174;19;1465;-72
2022/10/11 09:32:32;;;;;;;;;;;;;;;21.26;55.38;101545.63;7400782;19;1414;-66
2022/10/11 09:35:02;;;;;;;;;;;;;;;21.24;55.73;101569.09;7401959;19;1461;-65
2022/10/11 09:37:34;;;;;;;;;;;;;;;21.07;55.26;101549.03;7403342;19;1668;-67
2022/10/11 09:40:05;;;;;;;;;;;;;;;21.07;55.46;101557.09;7401809;19;1687;-66
2022/10/11 09:42:36;;;;;;;;;;;;;;;21.05;55.45;101532.19;7401530;19;1263;-66
2022/10/11 09:45:14;;;;;;;;;;;;;;;21.02;55.21;101554.78;7398230;19;1851;-66
2022/10/11 09:47:42;;;;;;;;;;;;;;;21.03;55.04;101545.75;7407829;19;1386;-66
2022/10/11 09:50:16;;;;;;;;;;;;;;;21.06;54.74;101542.78;7408842;19;1308;-66
2022/10/11 09:52:50;;;;;;;;;;;;;;;21.17;54.20;101546.38;7409285;19;1093;-66
2022/10/11 09:55:33;;;;;;;;;;;;;;;21.20;53.86;101530.00;7410146;19;1378;-66
2022/10/11 09:58:05;;;;;;;;;;;;;;;21.23;53.69;101527.91;7410374;19;1051;-66
2022/10/11 10:00:33;;;;;;;;;;;;;;;21.21;53.34;101526.34;7408516;19;1719;-67
2022/10/11 10:03:03;;;;;;;;;;;;;;;21.22;53.33;101536.09;7405580;19;1465;-66
2022/10/11 10:05:32;;;;;;;;;;;;;;;21.25;53.29;101517.03;7406600;19;1853;-66
2022/10/11 10:08:06;;;;;;;;;;;;;;;21.17;53.07;101530.25;7407507;19;1332;-66
2022/10/11 10:10:37;;;;;;;;;;;;;;;21.20;53.60;101530.00;7408612;19;1739;-65
2022/10/11 10:13:19;;;;;;;;;;;;;;;21.24;53.38;101520.69;7409004;19;1707;-65
2022/10/11 10:15:49;;;;;;;;;;;;;;;21.22;52.91;101517.28;7409918;19;1596;-65
2022/10/11 10:18:22;;;;;;;;;;;;;;;21.19;53.26;101522.94;7408574;19;1667;-65
2022/10/11 10:20:53;;;;;;;;;;;;;;;21.07;52.88;101508.69;7408534;19;1549;-65
2022/10/11 10:23:25;;;;;;;;;;;;;;;21.10;52.93;101508.41;7409986;19;1406;-65
2022/10/11 10:25:53;;;;;;;;;;;;;;;21.12;52.51;101506.44;7407952;19;1840;-65
2022/10/11 10:28:25;;;;;;;;;;;;;;;21.16;52.53;101512.44;7408380;19;1608;-66
2022/10/11 10:30:54;;;;;;;;;;;;;;;21.07;52.71;101506.00;7408718;19;1623;-66
2022/10/11 10:33:23;;;;;;;;;;;;;;;21.04;52.77;101493.66;7408690;19;1620;-66
2022/10/11 10:35:54;;;;;;;;;;;;;;;21.16;52.99;101494.44;7408363;19;1632;-62
2022/10/11 10:38:27;;;;;;;;;;;;;;;21.23;52.40;101508.25;7406610;19;1593;-67
2022/10/11 10:40:57;;;;;;;;;;;;;;;21.25;52.44;101490.97;7407867;19;1247;-67
2022/10/11 10:43:30;;;;;;;;;;;;;;;21.17;52.75;101500.66;7406093;19;1516;-69
2022/10/11 10:46:10;;;;;;;;;;;;;;;21.11;52.96;101477.88;7407087;19;1825;-66
2022/10/11 10:48:42;;;;;;;;;;;;;;;21.14;52.97;101484.81;7408068;19;1366;-66
2022/10/11 10:51:16;;;;;;;;;;;;;;;21.11;53.08;101494.00;7407152;19;1390;-64
2022/10/11 10:53:46;;;;;;;;;;;;;;;21.02;52.97;101471.44;7407381;19;1609;-66
2022/10/11 10:56:18;;;;;;;;;;;;;;;21.03;53.32;101470.47;7408768;19;1299;-63
2022/10/11 10:58:57;;;;;;;;;;;;;;;20.86;54.08;101482.63;7405336;19;1328;-66
2022/10/11 11:01:28;;;;;;;;;;;;;;;20.64;54.95;101486.28;7406913;19;1571;-65
2022/10/11 11:03:59;;;;;;;;;;;;;;;20.50;55.48;101478.50;7406167;19;1542;-66
2022/10/11 11:06:31;;;;;;;;;;;;;;;20.39;55.60;101482.09;7404724;19;1845;-65
2022/10/11 11:09:07;;;;;;;;;;;;;;;20.43;55.73;101466.56;7407930;19;1537;-66
2022/10/11 11:11:47;;;;;;;;;;;;;;;20.51;55.70;101473.97;7406191;19;1446;-66
2022/10/11 11:14:23;;;;;;;;;;;;;;;20.66;55.33;101473.56;7407134;19;1671;-66
2022/10/11 11:16:57;;;;;;;;;;;;;;;20.68;55.68;101478.81;7405158;19;1311;-66
2022/10/11 11:19:35;;;;;;;;;;;;;;;20.58;55.52;101464.44;7408204;19;1319;-66
2022/10/11 11:22:07;;;;;;;;;;;;;;;20.60;55.50;101474.09;7406957;19;1521;-66
2022/10/11 11:24:41;;;;;;;;;;;;;;;20.16;56.11;101462.50;7406187;19;1651;-66
2022/10/11 11:27:16;;;;;;;;;;;;;;;20.25;55.95;101459.06;7406901;19;1865;-66
2022/10/11 11:29:54;;;;;;;;;;;;;;;20.40;55.83;101474.88;7407336;19;1221;-66
2022/10/11 11:32:27;;;;;;;;;;;;;;;20.31;56.05;101467.56;7407746;19;1512;-66
2022/10/11 11:35:00;;;;;;;;;;;;;;;20.22;56.12;101461.16;7406572;19;1628;-66
2022/10/11 11:37:32;;;;;;;;;;;;;;;20.32;56.13;101456.72;7407839;19;1623;-66
2022/10/11 11:40:04;;;;;;;;;;;;;;;20.30;55.63;101460.53;7406471;19;1611;-66
2022/10/11 11:42:37;;;;;;;;;;;;;;;20.16;55.87;101459.81;7407276;19;1287;-67
2022/10/11 11:45:17;;;;;;;;;;;;;;;20.31;56.02;101456.84;7405291;19;1850;-66
2022/10/11 11:47:49;;;;;;;;;;;;;;;20.43;55.56;101455.81;7406505;19;1751;-66
2022/10/11 11:50:21;;;;;;;;;;;;;;;20.60;55.21;101465.19;7406025;19;1389;-66
2022/10/11 11:52:52;;;;;;;;;;;;;;;20.51;55.27;101460.53;7405210;19;1295;-66
2022/10/11 11:55:25;;;;;;;;;;;;;;;20.41;55.27;101458.66;7406105;19;1302;-66
2022/10/11 11:57:58;;;;;;;;;;;;;;;20.35;55.37;101448.41;7406965;19;1433;-67
2022/10/11 12:00:32;;;;;;;;;;;;;;;20.37;55.34;101449.13;7405534;19;1570;-66
2022/10/11 12:03:02;;;;;;;;;;;;;;;20.29;55.31;101450.75;7403185;19;1395;-66
2022/10/11 12:05:32;;;;;;;;;;;;;;;20.16;55.75;101443.69;7404129;19;1842;-67
2022/10/11 12:08:02;;;;;;;;;;;;;;;20.32;55.16;101437.91;7405762;19;1747;-66
2022/10/11 12:10:37;;;;;;;;;;;;;;;20.33;55.18;101438.75;7403587;19;1608;-66
2022/10/11 12:13:23;;;;;;;;;;;;;;;20.30;54.66;101444.41;7405806;19;1668;-67
2022/10/11 12:16:12;;;;;;;;;;;;;;;20.26;54.46;101452.69;7404824;19;1359;-66
2022/10/11 12:18:52;;;;;;;;;;;;;;;20.45;54.46;101453.84;7404986;19;1751;-67
2022/10/11 12:21:27;;;;;;;;;;;;;;;20.61;54.52;101456.13;7404413;19;1279;-66
2022/10/11 12:23:57;;;;;;;;;;;;;;;20.33;54.35;101444.97;7404106;19;1441;-66
2022/10/11 12:26:37;;;;;;;;;;;;;;;20.31;54.54;101449.63;7405752;19;1849;-66
2022/10/11 12:29:23;;;;;;;;;;;;;;;20.25;54.20;101451.00;7404267;19;1746;-66
2022/10/11 12:32:12;;;;;;;;;;;;;;;20.21;54.64;101446.00;7403447;19;1758;-66
2022/10/11 12:34:42;;;;;;;;;;;;;;;20.32;54.22;101442.44;7404784;19;1669;-66
2022/10/11 12:37:26;;;;;;;;;;;;;;;20.31;54.51;101440.72;7402453;19;1762;-68
2022/10/11 12:39:55;;;;;;;;;;;;;;;20.22;54.66;101443.19;7404823;19;1607;-67
2022/10/11 12:42:25;;;;;;;;;;;;;;;20.18;54.83;101440.91;7404837;19;1199;-67
2022/10/11 12:45:08;;;;;;;;;;;;;;;20.29;54.65;101445.38;7403167;19;1382;-67
2022/10/11 12:47:45;;;;;;;;;;;;;;;20.32;54.70;101448.66;7402802;19;1860;-67
2022/10/11 12:50:17;;;;;;;;;;;;;;;20.52;54.17;101433.56;7404555;19;1623;-67
2022/10/11 12:52:53;;;;;;;;;;;;;;;20.63;54.31;101432.66;7404535;19;1261;-67
2022/10/11 12:55:31;;;;;;;;;;;;;;;20.65;54.14;101411.88;7404677;19;1351;-67
2022/10/11 12:58:13;;;;;;;;;;;;;;;20.70;54.15;101420.44;7404487;19;1548;-68
2022/10/11 13:00:45;;;;;;;;;;;;;;;20.78;54.05;101409.88;7403979;19;1548;-67
2022/10/11 13:03:30;;;;;;;;;;;;;;;20.73;54.35;101409.44;7404804;19;1588;-67
2022/10/11 13:05:59;;;;;;;;;;;;;;;20.60;54.23;101425.72;7402661;19;1835;-66
2022/10/11 13:08:30;;;;;;;;;;;;;;;20.62;54.34;101423.75;7402530;19;1513;-67
2022/10/11 13:11:00;;;;;;;;;;;;;;;20.49;54.57;101438.31;7403543;19;1616;-67